• Join FlightAware (Why Join?)
  • Login
  • US Flag GB Flag 
10:09 EDT


 

Airport Tracker/Info


-or-


 

Live Flight TrackerFlight Track Log ✈ N960DL ✈ 01-May-2013 ✈ KHOU - KATL

Flight Track Log - Related Links

Times and Time Zones

All times are in EDT time to prevent confusion due to time zone crossing. See the N960DL flight status page for this flight to view local times or setup timezone preferences in your user account.

Time Position Orientation Groundspeed Altitude Reporting Facility
EDT Latitude Longitude Course Direction KTS MPH feet Rate Location/Type
19:15 29.5586 -95.2072 146° Southeast 257 296 3,400  Level Houston Center
19:16 29.7887 -94.9418 82° East  Level Estimated
19:16 29.5350 -95.1278 109° East 274 315 6,300  Level Houston Center
19:17 29.8362 -94.8292 79° East  Level Estimated
19:17 29.5222 -95.0392 99° East 286 329 8,900  Level Houston Center
19:18 29.8837 -94.7165 90° East  Level Estimated
19:18 29.5517 -94.9269 73° East 312 359 11,200  Level Houston Center
19:19 29.9310 -94.6037 86° East  Level Estimated
19:19 29.5839 -94.8117 72° East 383 441 12,900  Level Houston Center
19:20 29.6175 -94.6889 72° East 403 464 15,500 2,460 Climbing Houston Center
19:21 29.6558 -94.5583 71° East 418 481 18,000 2,280 Climbing Houston Center
19:22 29.6933 -94.4322 71° East 429 494 20,200 1,800 Climbing Houston Center
19:23 29.7153 -94.2875 80° East 458 527 21,800 1,560 Climbing Houston Center
19:24 29.6975 -94.1350 98° East 474 545 23,500 1,680 Climbing Houston Center
19:25 29.6847 -93.9842 96° East 475 547 25,300 2,040 Climbing Houston Center
19:26 29.6847 -93.8022 90° East 480 552 27,800 2,100 Climbing Houston Center
19:27 29.6844 -93.6547 90° East 471 542 29,700 1,440 Climbing Houston Center
19:28 29.6836 -93.5086 90° East 465 535 30,800 1,020 Climbing Houston Center
19:29 29.6825 -93.3631 90° East 461 531 31,900 840 Climbing Houston Center
19:30 29.6806 -93.2153 91° East 466 536 32,600 720 Climbing Houston Center
19:31 29.6778 -93.0653 91° East 472 543 33,400 1,080 Climbing Houston Center
19:32 29.6761 -92.8867 91° East 469 540 34,900 780 Climbing Houston Center
19:33 29.6725 -92.7425 92° East 458 527 35,000  Climbing Houston Center
19:34 29.6783 -92.5975 87° East 459 528 35,000  Level Houston Center
19:35 29.7308 -92.4633 66° East 462 532 35,000  Level Houston Center
19:36 29.7825 -92.3317 66° East 456 525 35,000 -60 Level Houston Center
19:37 29.8322 -92.2014 66° East 449 517 34,900  Descending Houston Center
19:38 29.8944 -92.0461 65° Northeast 446 513 35,000  Climbing Houston Center
19:39 29.9447 -91.9183 66° East 442 509 35,000  Level Houston Center
19:40 29.9958 -91.7906 65° Northeast 440 506 35,000  Level Houston Center
19:41 30.0528 -91.6556 64° Northeast 444 511 35,000  Level Houston Center
19:42 30.1053 -91.5275 65° Northeast 442 509 35,000  Level Houston Center
19:44 30.1558 -91.3981 66° East 443 510 35,000  Level Houston Center
19:45 30.2056 -91.2683 66° East 443 510 35,000  Level Houston Center
19:46 30.2569 -91.1386 65° Northeast 444 511 35,000  Level Houston Center
19:47 30.3144 -90.9836 67° East 439 505 35,000  Level Houston Center
19:48 30.3619 -90.8539 67° East 437 503 35,000  Level Houston Center
19:49 30.4111 -90.7253 66° East 438 504 35,000  Level Houston Center
19:50 30.4606 -90.5950 66° East 439 505 35,000  Level Houston Center
19:51 30.5111 -90.4664 65° Northeast 438 504 35,000  Level Houston Center
19:52 30.5600 -90.3367 66° East 438 504 35,000  Level Houston Center
19:53 30.6097 -90.2067 66° East 439 505 35,000  Level Houston Center
19:54 30.6592 -90.0781 66° East 434 499 35,000  Level Houston Center
19:55 30.7083 -89.9492 66° East 433 498 35,000  Level Houston Center
19:56 30.7692 -89.7933 66° East 437 503 35,000  Level Houston Center
19:57 30.8167 -89.6636 67° East 435 501 35,000  Level Houston Center
19:58 30.8667 -89.5331 66° East 438 504 35,000  Level Houston Center
19:59 30.9158 -89.4006 67° East 443 510 35,000  Level Houston Center
20:00 30.9656 -89.2656 67° East 451 519 35,000  Level Houston Center
20:01 31.0133 -89.1300 68° East 451 519 35,000 -60 Level Houston Center
20:02 31.0625 -88.9967 67° East 448 516 34,900  Descending Houston Center
20:03 31.1108 -88.8661 67° East 445 512 35,000  Climbing Houston Center
20:04 31.1708 -88.7044 67° East 448 516 35,000  Level Houston Center
20:05 31.2211 -88.5672 67° East 454 522 35,000  Level Houston Center
20:06 31.2717 -88.4311 66° East 455 524 35,000  Level Houston Center
20:07 31.3228 -88.2908 67° East 463 533 35,000  Level Houston Center
20:08 31.3481 -88.2281 65° Northeast 452 520 35,000  Level Atlanta Center
20:09 31.3983 -88.0917 67° East 452 520 35,000  Level Atlanta Center
20:10 31.4489 -87.9528 67° East 452 520 35,000  Level Atlanta Center
20:11 31.5092 -87.8214 62° Northeast 452 520 35,000  Level Atlanta Center
20:12 31.5839 -87.7003 54° Northeast 452 520 35,000 -540 Level Atlanta Center
20:13 31.6606 -87.5789 53° Northeast 452 520 34,000 -1,140 Descending Atlanta Center
20:14 31.7347 -87.4597 54° Northeast 457 526 32,800 -1,320 Descending Atlanta Center
20:15 31.8069 -87.3356 56° Northeast 457 526 31,400 -900 Descending Atlanta Center
20:16 31.8725 -87.2206 56° Northeast 463 533 31,000 -240 Descending Atlanta Center
20:17 31.9467 -87.0983 54° Northeast 463 533 31,000 -600 Level Atlanta Center
20:18 32.0206 -86.9758 55° Northeast 458 527 29,900 -1,320 Descending Atlanta Center
20:19 32.0944 -86.8558 54° Northeast 458 527 28,400 -2,040 Descending Atlanta Center
20:20 32.1661 -86.7328 55° Northeast 458 527 25,900 -2,220 Descending Atlanta Center
20:21 32.2503 -86.5978 54° Northeast 463 533 24,000 -960 Descending Atlanta Center
20:22 32.3258 -86.4722 55° Northeast 463 533 24,000  Level Atlanta Center
20:23 32.3803 -86.3556 61° Northeast 463 533 24,000  Level Atlanta Center
20:25 32.5458 -86.0842 54° Northeast 476 548 24,000  Level Atlanta Center
20:26 32.6208 -85.9525 56° Northeast 482 555 24,000  Level Atlanta Center
20:27 32.6958 -85.8233 55° Northeast 482 555 24,000 -720 Level Atlanta Center
20:28 32.7686 -85.6989 55° Northeast 477 549 22,600 -1,980 Descending Atlanta Center
20:29 32.8369 -85.5742 57° Northeast 463 533 20,100 -2,220 Descending Atlanta Center
20:30 32.9053 -85.4589 55° Northeast 445 512 18,200 -2,160 Descending Atlanta Center
20:31 32.9711 -85.3461 55° Northeast 428 493 15,800 -2,400 Descending Atlanta Center
20:32 33.0328 -85.2381 56° Northeast 405 466 13,500 -1,920 Descending Atlanta Center
20:33 33.0942 -85.1472 51° Northeast 385 443 12,000 -780 Descending Atlanta Center
20:34 33.1617 -85.0636 46° Northeast 361 415 12,000 -540 Level Atlanta Center
20:35 33.2208 -84.9875 47° Northeast 330 380 11,000 -1,620 Descending Atlanta Center
20:36 33.2714 -84.9158 50° Northeast 293 337 8,800 -1,740 Descending Atlanta Center
20:37 33.3242 -84.8494 46° Northeast 278 320 7,600 -1,920 Descending Atlanta Center
20:37 33.3833 -84.8333 13° North 276 318 5,800 -1,680 Descending Atlanta TRACON
20:38 33.4500 -84.8000 23° Northeast 273 314 5,000 -900 Descending Atlanta TRACON
20:39 33.5167 -84.7833 12° North 265 305 4,100 -720 Descending Atlanta TRACON
20:40 33.5833 -84.7500 23° Northeast 216 249 3,600 -600 Descending Atlanta TRACON
20:41 33.6000 -84.7000 68° East 199 229 3,000 -300 Descending Atlanta TRACON
20:42 33.6167 -84.6333 73° East 191 220 3,000  Level Atlanta TRACON
20:43 33.6167 -84.5833 90° East 163 188 3,000 -360 Level Atlanta TRACON
20:44 33.6167 -84.5333 90° East 152 175 2,300 -660 Descending Atlanta TRACON
20:45 33.6167 -84.4833 90° East 124 143 1,700 -600 Descending Atlanta TRACON